createdAt,value
2017-12-28T00:00:16.610Z,97980.36
2017-12-28T00:01:19.085Z,97980.34
2017-12-28T00:02:21.548Z,97990.64
2017-12-28T00:03:24.000Z,97990.00
2017-12-28T00:04:26.508Z,97999.50
2017-12-28T00:05:28.953Z,97996.09
2017-12-28T00:06:31.412Z,98006.44
2017-12-28T00:07:33.862Z,98003.37
2017-12-28T00:08:36.306Z,97995.70
2017-12-28T00:09:38.772Z,98007.20
2017-12-28T00:10:41.219Z,98018.39
2017-12-28T00:11:43.688Z,98016.02
2017-12-28T00:12:46.160Z,98023.47
2017-12-28T00:13:49.256Z,98031.24
2017-12-28T00:14:51.721Z,98028.27
2017-12-28T00:15:54.180Z,98029.03
2017-12-28T00:16:56.621Z,98029.00
2017-12-28T00:17:59.426Z,98033.44
2017-12-28T00:19:01.874Z,98040.89
2017-12-28T00:20:04.361Z,98041.15
2017-12-28T00:21:06.806Z,98041.27
2017-12-28T00:22:09.268Z,98038.02
2017-12-28T00:23:11.714Z,98036.13
2017-12-28T00:24:14.172Z,98042.05
2017-12-28T00:25:16.634Z,98046.99
2017-12-28T00:26:19.087Z,98047.25
2017-12-28T00:27:21.548Z,98045.31
2017-12-28T00:28:23.996Z,98039.36
2017-12-28T00:29:26.441Z,98046.47
2017-12-28T00:30:28.918Z,98049.34
2017-12-28T00:31:31.383Z,98051.81
2017-12-28T00:32:33.833Z,98050.51
2017-12-28T00:33:36.316Z,98054.61
2017-12-28T00:34:38.757Z,98057.32
2017-12-28T00:35:41.242Z,98055.59
2017-12-28T00:36:43.798Z,98053.17
2017-12-28T00:37:46.297Z,98057.45
2017-12-28T00:38:48.848Z,98063.88
2017-12-28T00:39:51.326Z,98063.35
2017-12-28T00:40:53.810Z,98067.28
2017-12-28T00:41:56.272Z,98067.97
2017-12-28T00:42:58.732Z,98066.55
2017-12-28T00:44:01.193Z,98067.34
2017-12-28T00:45:03.634Z,98071.33
2017-12-28T00:46:06.158Z,98070.16
2017-12-28T00:47:08.589Z,98066.64
2017-12-28T00:48:11.034Z,98074.05
2017-12-28T00:49:13.477Z,98079.51
2017-12-28T00:50:15.956Z,98075.62
2017-12-28T00:51:18.441Z,98080.48
2017-12-28T00:52:20.904Z,98082.16
2017-12-28T00:53:23.364Z,98089.19
2017-12-28T00:54:25.828Z,98081.55
2017-12-28T00:55:28.273Z,98086.11
2017-12-28T00:56:30.752Z,98087.91
2017-12-28T00:57:33.216Z,98089.37
2017-12-28T00:58:35.658Z,98090.20
2017-12-28T00:59:38.106Z,98092.40
2017-12-28T01:00:40.551Z,98096.02
2017-12-28T01:01:43.032Z,98103.77
2017-12-28T01:02:45.489Z,98106.09
2017-12-28T01:03:47.949Z,98107.83
2017-12-28T01:04:50.423Z,98108.70
2017-12-28T01:05:52.884Z,98115.16
2017-12-28T01:06:55.357Z,98113.38
2017-12-28T01:07:57.842Z,98119.81
2017-12-28T01:09:00.304Z,98121.09
2017-12-28T01:10:02.753Z,98125.72
2017-12-28T01:11:05.215Z,98126.17
2017-12-28T01:12:07.678Z,98122.45
2017-12-28T01:13:10.122Z,98126.11
2017-12-28T01:14:12.562Z,98126.91
2017-12-28T01:15:15.010Z,98129.89
2017-12-28T01:16:17.454Z,98130.53
2017-12-28T01:17:19.951Z,98133.87
2017-12-28T01:18:22.398Z,98131.58
2017-12-28T01:19:24.842Z,98138.65
2017-12-28T01:20:27.287Z,98141.70
2017-12-28T01:21:29.730Z,98134.73
2017-12-28T01:22:32.193Z,98138.35
2017-12-28T01:23:34.652Z,98143.17
2017-12-28T01:24:37.097Z,98143.54
2017-12-28T01:25:39.567Z,98144.53
2017-12-28T01:26:42.029Z,98141.16
2017-12-28T01:27:44.497Z,98137.02
2017-12-28T01:28:46.956Z,98146.58
2017-12-28T01:29:49.416Z,98148.69
2017-12-28T01:30:51.880Z,98149.15
2017-12-28T01:31:54.321Z,98147.92
2017-12-28T01:32:56.785Z,98149.13
2017-12-28T01:33:59.225Z,98150.39
2017-12-28T01:35:01.691Z,98160.78
2017-12-28T01:36:04.177Z,98158.13
2017-12-28T01:37:06.639Z,98156.09
2017-12-28T01:38:09.123Z,98162.05
2017-12-28T01:39:11.584Z,98157.95
2017-12-28T01:40:14.045Z,98163.97
2017-12-28T01:41:16.494Z,98172.96
2017-12-28T01:42:18.955Z,98176.28
2017-12-28T01:43:21.472Z,98172.68
2017-12-28T01:44:23.917Z,98179.37
2017-12-28T01:45:26.377Z,98179.06
2017-12-28T01:46:28.829Z,98176.81
2017-12-28T01:47:31.282Z,98183.52
2017-12-28T01:48:33.745Z,98180.55
2017-12-28T01:49:36.193Z,98188.45
2017-12-28T01:50:38.645Z,98186.55
2017-12-28T01:51:41.104Z,98193.09
2017-12-28T01:52:43.560Z,98196.27
2017-12-28T01:53:46.050Z,98195.55
2017-12-28T01:54:48.508Z,98197.81
2017-12-28T01:55:50.973Z,98201.41
2017-12-28T01:56:53.438Z,98205.25
2017-12-28T01:57:55.885Z,98209.55
2017-12-28T01:58:58.349Z,98201.31
2017-12-28T02:00:00.801Z,98211.81
2017-12-28T02:01:03.245Z,98210.95
2017-12-28T02:02:05.697Z,98223.09
2017-12-28T02:03:08.156Z,98219.85
2017-12-28T02:04:10.641Z,98220.42
2017-12-28T02:05:13.090Z,98229.08
2017-12-28T02:06:15.551Z,98223.59
2017-12-28T02:07:18.012Z,98223.98
2017-12-28T02:08:20.513Z,98214.62
2017-12-28T02:09:22.958Z,98214.42
2017-12-28T02:10:25.433Z,98219.00
2017-12-28T02:11:27.878Z,98222.41
2017-12-28T02:12:30.339Z,98222.00
2017-12-28T02:13:32.785Z,98229.06
2017-12-28T02:14:35.249Z,98237.34
2017-12-28T02:15:37.711Z,98231.53
2017-12-28T02:16:40.154Z,98231.48
2017-12-28T02:17:42.601Z,98231.42
2017-12-28T02:18:45.042Z,98230.92
2017-12-28T02:19:47.506Z,98233.10
2017-12-28T02:20:49.946Z,98243.21
2017-12-28T02:21:52.420Z,98239.98
2017-12-28T02:22:54.879Z,98246.67
2017-12-28T02:23:57.363Z,98242.90
2017-12-28T02:24:59.826Z,98243.02
2017-12-28T02:26:02.287Z,98250.46
2017-12-28T02:27:04.730Z,98253.61
2017-12-28T02:28:07.174Z,98259.59
2017-12-28T02:29:09.635Z,98257.09
2017-12-28T02:30:12.102Z,98258.22
2017-12-28T02:31:14.545Z,98266.00
2017-12-28T02:32:17.004Z,98264.41
2017-12-28T02:33:19.476Z,98261.70
2017-12-28T02:34:21.944Z,98271.03
2017-12-28T02:35:24.423Z,98267.34
2017-12-28T02:36:26.880Z,98267.40
2017-12-28T02:37:29.326Z,98268.72
2017-12-28T02:38:31.773Z,98271.70
2017-12-28T02:39:34.235Z,98271.52
2017-12-28T02:40:36.701Z,98273.93
2017-12-28T02:41:39.160Z,98272.61
2017-12-28T02:42:41.609Z,98281.15
2017-12-28T02:43:44.080Z,98276.55
2017-12-28T02:44:46.544Z,98281.09
2017-12-28T02:45:49.028Z,98277.92
2017-12-28T02:46:51.474Z,98280.68
2017-12-28T02:47:53.935Z,98275.41
2017-12-28T02:48:56.388Z,98279.78
2017-12-28T02:49:58.851Z,98285.91
2017-12-28T02:51:01.336Z,98286.48
2017-12-28T02:52:03.781Z,98289.66
2017-12-28T02:53:06.237Z,98293.67
2017-12-28T02:54:08.704Z,98295.59
2017-12-28T02:55:11.167Z,98296.95
2017-12-28T02:56:13.636Z,98297.02
2017-12-28T02:57:16.097Z,98298.22
2017-12-28T02:58:18.537Z,98295.97
2017-12-28T02:59:20.995Z,98296.27
2017-12-28T03:00:23.452Z,98302.13
2017-12-28T03:01:25.931Z,98297.62
2017-12-28T03:02:28.377Z,98300.52
2017-12-28T03:03:30.825Z,98309.25
2017-12-28T03:04:33.284Z,98309.60
2017-12-28T03:05:35.725Z,98308.95
2017-12-28T03:06:38.204Z,98310.92
2017-12-28T03:07:40.659Z,98304.28
2017-12-28T03:08:43.101Z,98312.25
2017-12-28T03:09:45.559Z,98310.16
2017-12-28T03:10:48.024Z,98314.00
2017-12-28T03:11:50.505Z,98316.86
2017-12-28T03:12:52.967Z,98321.55
2017-12-28T03:13:55.436Z,98316.98
2017-12-28T03:14:57.878Z,98317.16
2017-12-28T03:16:00.330Z,98320.45
2017-12-28T03:17:02.794Z,98322.08
2017-12-28T03:18:05.247Z,98318.19
2017-12-28T03:19:07.701Z,98326.45
2017-12-28T03:20:10.145Z,98330.52
2017-12-28T03:21:12.643Z,98329.44
2017-12-28T03:22:15.136Z,98328.12
2017-12-28T03:23:17.600Z,98330.74
2017-12-28T03:24:20.064Z,98334.53
2017-12-28T03:25:22.527Z,98334.20
2017-12-28T03:26:25.008Z,98336.77
2017-12-28T03:27:27.472Z,98331.20
2017-12-28T03:28:29.935Z,98340.05
2017-12-28T03:29:32.382Z,98339.37
2017-12-28T03:30:34.852Z,98336.55
2017-12-28T03:31:37.324Z,98340.98
2017-12-28T03:32:39.783Z,98344.09
2017-12-28T03:33:42.229Z,98341.47
2017-12-28T03:34:44.692Z,98344.89
2017-12-28T03:35:47.151Z,98349.66
2017-12-28T03:36:49.597Z,98344.56
2017-12-28T03:37:52.056Z,98353.56
2017-12-28T03:38:54.958Z,98352.67
2017-12-28T03:39:57.414Z,98350.13
2017-12-28T03:40:59.900Z,98351.41
2017-12-28T03:42:02.346Z,98352.98
2017-12-28T03:43:04.807Z,98350.42
2017-12-28T03:44:07.264Z,98355.13
2017-12-28T03:45:09.707Z,98360.33
2017-12-28T03:46:12.169Z,98360.97
2017-12-28T03:47:14.632Z,98356.86
2017-12-28T03:48:17.073Z,98362.65
2017-12-28T03:49:19.548Z,98361.19
2017-12-28T03:50:21.994Z,98371.94
2017-12-28T03:51:24.470Z,98371.16
2017-12-28T03:52:26.939Z,98377.08
2017-12-28T03:53:29.408Z,98376.86
2017-12-28T03:54:31.902Z,98380.58
2017-12-28T03:55:34.330Z,98380.38
2017-12-28T03:56:36.789Z,98379.10
2017-12-28T03:57:39.239Z,98380.13
2017-12-28T03:58:41.685Z,98386.08
2017-12-28T03:59:44.138Z,98383.72
2017-12-28T04:00:46.586Z,98389.79
2017-12-28T04:01:49.075Z,98388.20
2017-12-28T04:02:51.532Z,98391.38
2017-12-28T04:03:54.013Z,98393.83
2017-12-28T04:04:56.472Z,98394.13
2017-12-28T04:05:58.931Z,98394.08
2017-12-28T04:07:01.376Z,98398.91
2017-12-28T04:08:03.838Z,98395.05
2017-12-28T04:09:06.296Z,98398.05
2017-12-28T04:10:08.760Z,98399.34
2017-12-28T04:11:11.219Z,98398.88
2017-12-28T04:12:13.679Z,98399.96
2017-12-28T04:13:16.144Z,98399.11
2017-12-28T04:14:18.604Z,98397.14
2017-12-28T04:15:21.050Z,98396.97
2017-12-28T04:16:23.512Z,98395.69
2017-12-28T04:17:25.971Z,98395.44
2017-12-28T04:18:28.436Z,98401.42
2017-12-28T04:19:30.892Z,98405.18
2017-12-28T04:20:33.364Z,98396.69
2017-12-28T04:21:35.824Z,98402.20
2017-12-28T04:22:38.269Z,98406.80
2017-12-28T04:23:40.732Z,98410.55
2017-12-28T04:24:43.181Z,98406.60
2017-12-28T04:25:45.653Z,98412.45
2017-12-28T04:26:48.106Z,98413.44
2017-12-28T04:27:50.564Z,98416.20
2017-12-28T04:28:53.025Z,98419.45
2017-12-28T04:29:55.487Z,98424.77
2017-12-28T04:30:57.937Z,98431.97
2017-12-28T04:32:00.401Z,98431.23
2017-12-28T04:33:02.849Z,98436.59
2017-12-28T04:34:05.297Z,98441.36
2017-12-28T04:35:07.741Z,98439.63
2017-12-28T04:36:10.204Z,98441.15
2017-12-28T04:37:12.649Z,98438.34
2017-12-28T04:38:15.089Z,98443.23
2017-12-28T04:39:17.552Z,98447.55
2017-12-28T04:40:20.052Z,98443.39
2017-12-28T04:41:22.515Z,98441.64
2017-12-28T04:42:24.971Z,98444.91
2017-12-28T04:43:27.436Z,98440.23
2017-12-28T04:44:29.885Z,98436.21
2017-12-28T04:45:32.326Z,98438.66
2017-12-28T04:46:34.769Z,98440.97
2017-12-28T04:47:37.227Z,98440.54
2017-12-28T04:48:39.692Z,98447.79
2017-12-28T04:49:42.161Z,98452.83
2017-12-28T04:50:44.625Z,98452.54
2017-12-28T04:51:47.083Z,98451.08
2017-12-28T04:52:49.537Z,98454.52
2017-12-28T04:53:52.004Z,98459.99
2017-12-28T04:54:54.466Z,98460.99
2017-12-28T04:55:56.927Z,98463.44
2017-12-28T04:56:59.389Z,98465.01
2017-12-28T04:58:01.851Z,98467.69
2017-12-28T04:59:04.323Z,98464.62
2017-12-28T05:00:06.793Z,98474.02
2017-12-28T05:01:09.255Z,98476.52
2017-12-28T05:02:11.723Z,98468.25
2017-12-28T05:03:14.165Z,98472.19
2017-12-28T05:04:16.666Z,98477.83
2017-12-28T05:05:19.116Z,98471.91
2017-12-28T05:06:21.563Z,98476.45
2017-12-28T05:07:24.024Z,98474.52
2017-12-28T05:08:26.488Z,98485.01
2017-12-28T05:09:28.948Z,98483.12
2017-12-28T05:10:31.397Z,98477.66
2017-12-28T05:11:33.844Z,98479.86
2017-12-28T05:12:36.290Z,98477.13
2017-12-28T05:13:38.729Z,98482.88
2017-12-28T05:14:41.177Z,98483.72
2017-12-28T05:15:43.625Z,98489.98
2017-12-28T05:16:46.073Z,98487.00
2017-12-28T05:17:48.526Z,98490.78
2017-12-28T05:18:50.969Z,98498.03
2017-12-28T05:19:53.413Z,98495.23
2017-12-28T05:20:55.880Z,98496.00
2017-12-28T05:21:58.325Z,98502.23
2017-12-28T05:23:00.770Z,98498.81
2017-12-28T05:24:03.242Z,98501.44
2017-12-28T05:25:05.690Z,98504.22
2017-12-28T05:26:08.156Z,98507.68
2017-12-28T05:27:10.602Z,98505.29
2017-12-28T05:28:13.042Z,98509.95
2017-12-28T05:29:15.504Z,98510.34
2017-12-28T05:30:17.963Z,98513.81
2017-12-28T05:31:20.421Z,98512.19
2017-12-28T05:32:22.880Z,98510.92
2017-12-28T05:33:25.331Z,98514.73
2017-12-28T05:34:27.792Z,98515.24
2017-12-28T05:35:30.241Z,98516.73
2017-12-28T05:36:32.703Z,98517.11
2017-12-28T05:37:35.159Z,98517.88
2017-12-28T05:38:37.624Z,98520.50
2017-12-28T05:39:40.089Z,98525.27
2017-12-28T05:40:42.542Z,98527.16
2017-12-28T05:41:45.005Z,98528.18
2017-12-28T05:42:47.449Z,98534.55
2017-12-28T05:43:49.895Z,98539.27
2017-12-28T05:44:52.360Z,98538.91
2017-12-28T05:45:54.820Z,98537.61
2017-12-28T05:46:57.442Z,98543.94
2017-12-28T05:47:59.882Z,98545.90
2017-12-28T05:49:02.330Z,98548.78
2017-12-28T05:50:04.790Z,98548.48
2017-12-28T05:51:07.241Z,98547.80
2017-12-28T05:52:09.686Z,98553.72
2017-12-28T05:53:12.144Z,98554.73
2017-12-28T05:54:14.594Z,98555.82
2017-12-28T05:55:17.045Z,98558.61
2017-12-28T05:56:19.504Z,98554.16
2017-12-28T05:57:21.954Z,98555.81
2017-12-28T05:58:24.433Z,98553.91
2017-12-28T05:59:26.891Z,98559.11
2017-12-28T06:00:29.348Z,98562.73
2017-12-28T06:01:31.804Z,98559.70
2017-12-28T06:02:34.286Z,98558.51
2017-12-28T06:03:36.733Z,98557.05
2017-12-28T06:04:39.177Z,98565.27
2017-12-28T06:05:41.622Z,98564.77
2017-12-28T06:06:44.116Z,98568.35
2017-12-28T06:07:46.580Z,98570.44
2017-12-28T06:08:49.022Z,98576.39
2017-12-28T06:09:51.490Z,98580.75
2017-12-28T06:10:53.952Z,98577.73
2017-12-28T06:11:56.412Z,98580.95
2017-12-28T06:12:58.872Z,98586.78
2017-12-28T06:14:01.317Z,98593.33
2017-12-28T06:15:03.766Z,98591.66
2017-12-28T06:16:06.231Z,98596.53
2017-12-28T06:17:08.686Z,98598.92
2017-12-28T06:18:11.151Z,98600.39
2017-12-28T06:19:13.612Z,98602.39
2017-12-28T06:20:16.057Z,98601.55
2017-12-28T06:21:18.520Z,98601.22
2017-12-28T06:22:20.993Z,98601.98
2017-12-28T06:23:23.488Z,98601.20
2017-12-28T06:24:25.935Z,98604.02
2017-12-28T06:25:28.384Z,98606.18
2017-12-28T06:26:30.833Z,98605.54
2017-12-28T06:27:33.295Z,98603.64
2017-12-28T06:28:35.747Z,98609.64
2017-12-28T06:29:38.198Z,98610.38
2017-12-28T06:30:40.641Z,98612.45
2017-12-28T06:31:43.104Z,98613.65
2017-12-28T06:32:45.564Z,98618.12
2017-12-28T06:33:48.029Z,98617.68
2017-12-28T06:34:50.483Z,98622.80
2017-12-28T06:35:52.925Z,98623.71
2017-12-28T06:36:55.388Z,98622.32
2017-12-28T06:37:57.829Z,98626.05
2017-12-28T06:39:00.291Z,98632.92
2017-12-28T06:40:02.756Z,98625.65
2017-12-28T06:41:05.230Z,98633.89
2017-12-28T06:42:07.678Z,98632.34
2017-12-28T06:43:10.144Z,98632.98
2017-12-28T06:44:12.620Z,98633.27
2017-12-28T06:45:15.077Z,98635.16
2017-12-28T06:46:17.626Z,98636.36
2017-12-28T06:47:20.070Z,98639.82
2017-12-28T06:48:22.518Z,98643.83
2017-12-28T06:49:24.972Z,98645.92
2017-12-28T06:50:28.526Z,98648.70
2017-12-28T06:51:31.002Z,98647.92
2017-12-28T06:52:33.454Z,98647.16
2017-12-28T06:53:35.923Z,98648.56
2017-12-28T06:54:38.370Z,98648.42
2017-12-28T06:55:40.810Z,98648.48
2017-12-28T06:56:43.329Z,98651.06
2017-12-28T06:57:45.816Z,98654.23
2017-12-28T06:58:48.280Z,98654.99
2017-12-28T06:59:51.921Z,98654.48
2017-12-28T07:00:54.370Z,98659.20
2017-12-28T07:01:56.829Z,98654.98
2017-12-28T07:02:59.274Z,98656.67
2017-12-28T07:04:01.743Z,98666.45
2017-12-28T07:05:04.220Z,98664.86
2017-12-28T07:06:06.679Z,98664.35
2017-12-28T07:07:09.131Z,98666.98
2017-12-28T07:08:11.573Z,98666.66
2017-12-28T07:09:14.047Z,98676.70
2017-12-28T07:10:16.498Z,98671.55
2017-12-28T07:11:18.965Z,98673.14
2017-12-28T07:12:21.432Z,98673.78
2017-12-28T07:13:23.900Z,98676.38
2017-12-28T07:14:26.351Z,98676.30
2017-12-28T07:15:28.802Z,98677.02
2017-12-28T07:16:31.264Z,98674.77
2017-12-28T07:17:33.729Z,98679.79
2017-12-28T07:18:36.177Z,98676.84
2017-12-28T07:19:38.641Z,98686.81
2017-12-28T07:20:41.101Z,98684.56
2017-12-28T07:21:43.555Z,98687.10
2017-12-28T07:22:46.024Z,98682.65
2017-12-28T07:23:48.484Z,98684.47
2017-12-28T07:24:50.944Z,98683.51
2017-12-28T07:25:53.419Z,98690.42
2017-12-28T07:26:55.882Z,98701.09
2017-12-28T07:27:58.608Z,98689.78
2017-12-28T07:29:01.052Z,98700.05
2017-12-28T07:30:03.494Z,98695.38
2017-12-28T07:31:05.958Z,98697.80
2017-12-28T07:32:08.406Z,98700.63
2017-12-28T07:33:10.858Z,98707.58
2017-12-28T07:34:13.302Z,98703.72
2017-12-28T07:35:15.745Z,98711.41
2017-12-28T07:36:18.231Z,98705.79
2017-12-28T07:37:20.692Z,98706.09
2017-12-28T07:38:23.160Z,98711.83
2017-12-28T07:39:25.601Z,98710.46
2017-12-28T07:40:28.050Z,98704.84
2017-12-28T07:41:30.531Z,98712.25
2017-12-28T07:42:32.991Z,98712.44
2017-12-28T07:43:35.457Z,98711.66
2017-12-28T07:44:37.915Z,98714.63
2017-12-28T07:45:40.379Z,98718.80
2017-12-28T07:46:42.872Z,98714.02
2017-12-28T07:47:45.317Z,98719.28
2017-12-28T07:48:47.757Z,98719.84
2017-12-28T07:49:50.224Z,98717.02
2017-12-28T07:50:52.688Z,98718.28
2017-12-28T07:51:55.157Z,98717.95
2017-12-28T07:52:57.608Z,98723.56
2017-12-28T07:54:00.052Z,98724.50
2017-12-28T07:55:02.508Z,98727.74
2017-12-28T07:56:04.958Z,98735.25
2017-12-28T07:57:07.512Z,98735.23
2017-12-28T07:58:11.210Z,98738.61
2017-12-28T07:59:13.658Z,98740.55
2017-12-28T08:00:16.129Z,98734.89
2017-12-28T08:01:18.583Z,98747.78
2017-12-28T08:02:21.064Z,98754.22
2017-12-28T08:03:23.556Z,98755.22
2017-12-28T08:04:26.049Z,98750.52
2017-12-28T08:05:28.503Z,98747.56
2017-12-28T08:06:30.972Z,98750.07
2017-12-28T08:07:33.455Z,98753.59
2017-12-28T08:08:35.916Z,98754.51
2017-12-28T08:09:38.400Z,98751.94
2017-12-28T08:10:40.848Z,98754.55
2017-12-28T08:11:43.312Z,98756.80
2017-12-28T08:12:45.817Z,98750.47
2017-12-28T08:13:48.270Z,98757.86
2017-12-28T08:14:50.718Z,98755.55
2017-12-28T08:15:53.183Z,98751.63
2017-12-28T08:16:55.883Z,98754.25
2017-12-28T08:17:58.509Z,98759.57
2017-12-28T08:19:00.988Z,98758.39
2017-12-28T08:20:03.456Z,98753.19
2017-12-28T08:21:05.913Z,98761.10
2017-12-28T08:22:08.451Z,98756.16
2017-12-28T08:23:10.932Z,98758.33
2017-12-28T08:24:13.382Z,98760.50
2017-12-28T08:25:15.843Z,98766.13
2017-12-28T08:26:18.293Z,98760.83
2017-12-28T08:27:20.745Z,98765.06
2017-12-28T08:28:23.204Z,98762.86
2017-12-28T08:29:25.657Z,98762.56
2017-12-28T08:30:28.121Z,98759.73
2017-12-28T08:31:30.569Z,98761.29
2017-12-28T08:32:33.017Z,98757.42
2017-12-28T08:33:35.480Z,98762.18
2017-12-28T08:34:37.943Z,98759.66
2017-12-28T08:35:40.395Z,98766.02
2017-12-28T08:36:42.842Z,98758.70
2017-12-28T08:37:45.290Z,98751.41
2017-12-28T08:38:47.759Z,98754.78
2017-12-28T08:39:50.229Z,98755.55
2017-12-28T08:40:52.675Z,98759.17
2017-12-28T08:41:55.126Z,98758.84
2017-12-28T08:42:57.591Z,98763.86
2017-12-28T08:44:00.051Z,98765.22
2017-12-28T08:45:02.516Z,98767.48
2017-12-28T08:46:05.080Z,98765.04
2017-12-28T08:47:07.541Z,98770.78
2017-12-28T08:48:10.006Z,98772.73
2017-12-28T08:49:12.457Z,98773.60
2017-12-28T08:50:14.903Z,98779.38
2017-12-28T08:51:17.354Z,98781.04
2017-12-28T08:52:19.810Z,98781.11
2017-12-28T08:53:22.272Z,98779.39
2017-12-28T08:54:24.810Z,98785.69
2017-12-28T08:55:27.272Z,98783.77
2017-12-28T08:56:29.738Z,98780.91
2017-12-28T08:57:32.208Z,98791.98
2017-12-28T08:58:34.746Z,98793.27
2017-12-28T08:59:37.251Z,98791.06
2017-12-28T09:00:39.704Z,98798.05
2017-12-28T09:01:42.164Z,98799.06
2017-12-28T09:02:44.648Z,98793.54
2017-12-28T09:03:47.112Z,98792.42
2017-12-28T09:04:49.588Z,98807.68
2017-12-28T09:05:52.056Z,98799.44
2017-12-28T09:06:54.529Z,98806.17
2017-12-28T09:07:56.978Z,98802.63
2017-12-28T09:08:59.463Z,98805.80
2017-12-28T09:10:01.935Z,98801.82
2017-12-28T09:11:04.402Z,98815.17
2017-12-28T09:12:06.872Z,98814.19
2017-12-28T09:13:09.347Z,98809.79
2017-12-28T09:14:11.856Z,98814.77
2017-12-28T09:15:14.318Z,98820.05
2017-12-28T09:16:16.769Z,98820.16
2017-12-28T09:17:19.230Z,98825.95
2017-12-28T09:18:21.697Z,98825.70
2017-12-28T09:19:24.180Z,98830.11
2017-12-28T09:20:26.634Z,98826.77
2017-12-28T09:21:29.103Z,98838.62
2017-12-28T09:22:31.555Z,98835.86
2017-12-28T09:23:34.020Z,98833.39
2017-12-28T09:24:36.504Z,98837.49
2017-12-28T09:25:38.967Z,98840.33
2017-12-28T09:26:41.440Z,98841.70
2017-12-28T09:27:43.886Z,98841.98
2017-12-28T09:28:46.334Z,98843.20
2017-12-28T09:29:48.802Z,98843.34
2017-12-28T09:30:51.253Z,98853.55
2017-12-28T09:31:53.727Z,98847.77
2017-12-28T09:32:56.241Z,98855.08
2017-12-28T09:33:58.686Z,98857.74
2017-12-28T09:35:01.164Z,98853.42
2017-12-28T09:36:03.616Z,98857.11
2017-12-28T09:37:06.084Z,98851.18
2017-12-28T09:38:08.545Z,98858.73
2017-12-28T09:39:11.012Z,98861.71
2017-12-28T09:40:13.477Z,98859.00
2017-12-28T09:41:15.927Z,98857.19
2017-12-28T09:42:18.389Z,98853.70
2017-12-28T09:43:20.856Z,98854.30
2017-12-28T09:44:23.316Z,98864.78
2017-12-28T09:45:25.776Z,98867.55
2017-12-28T09:46:28.226Z,98864.30
2017-12-28T09:47:30.672Z,98868.50
2017-12-28T09:48:33.132Z,98870.65
2017-12-28T09:49:35.595Z,98874.89
2017-12-28T09:50:38.060Z,98874.15
2017-12-28T09:51:40.636Z,98880.89
2017-12-28T09:52:43.100Z,98880.13
2017-12-28T09:53:45.559Z,98880.47
2017-12-28T09:54:48.047Z,98894.99
2017-12-28T09:55:50.490Z,98887.23
2017-12-28T09:56:52.952Z,98889.01
2017-12-28T09:57:55.412Z,98890.83
2017-12-28T09:58:57.890Z,98896.22
2017-12-28T10:00:00.376Z,98901.25
2017-12-28T10:01:02.841Z,98896.04
2017-12-28T10:02:05.383Z,98894.88
2017-12-28T10:03:07.848Z,98892.94
2017-12-28T10:04:10.302Z,98900.64
2017-12-28T10:05:12.789Z,98897.92
2017-12-28T10:06:15.242Z,98892.24
2017-12-28T10:07:17.704Z,98896.28
2017-12-28T10:08:20.164Z,98898.48
2017-12-28T10:09:22.632Z,98905.97
2017-12-28T10:10:25.116Z,98910.11
2017-12-28T10:11:27.575Z,98907.80
2017-12-28T10:12:30.018Z,98906.70
2017-12-28T10:13:32.479Z,98900.58
2017-12-28T10:14:34.940Z,98906.81
2017-12-28T10:15:37.421Z,98911.37
2017-12-28T10:16:39.882Z,98906.55
2017-12-28T10:17:42.347Z,98901.41
2017-12-28T10:18:44.808Z,98908.41
2017-12-28T10:19:47.256Z,98906.02
2017-12-28T10:20:49.718Z,98912.20
2017-12-28T10:21:52.167Z,98916.95
2017-12-28T10:22:54.627Z,98921.94
2017-12-28T10:23:57.092Z,98912.22
2017-12-28T10:24:59.537Z,98907.95
2017-12-28T10:26:02.003Z,98910.75
2017-12-28T10:27:04.460Z,98916.40
2017-12-28T10:28:06.916Z,98907.39
2017-12-28T10:29:09.361Z,98912.50
2017-12-28T10:30:11.810Z,98909.86
2017-12-28T10:31:14.298Z,98913.66
2017-12-28T10:32:16.749Z,98913.49
2017-12-28T10:33:19.212Z,98919.30
2017-12-28T10:34:21.662Z,98917.38
2017-12-28T10:35:24.136Z,98911.30
2017-12-28T10:36:26.633Z,98917.03
2017-12-28T10:37:29.104Z,98915.06
2017-12-28T10:38:31.562Z,98913.90
2017-12-28T10:39:34.014Z,98919.41
2017-12-28T10:40:36.480Z,98917.94
2017-12-28T10:41:38.976Z,98920.39
2017-12-28T10:42:41.467Z,98918.39
2017-12-28T10:43:43.999Z,98929.55
2017-12-28T10:44:46.446Z,98923.89
2017-12-28T10:45:48.908Z,98927.05
2017-12-28T10:46:51.670Z,98932.48
2017-12-28T10:47:54.443Z,98934.91
2017-12-28T10:48:56.917Z,98938.38
2017-12-28T10:49:59.377Z,98935.45
2017-12-28T10:51:01.840Z,98934.64
2017-12-28T10:52:04.334Z,98933.95
2017-12-28T10:53:06.798Z,98937.22
2017-12-28T10:54:09.260Z,98939.27
2017-12-28T10:55:11.706Z,98953.37
2017-12-28T10:56:14.168Z,98943.20
2017-12-28T10:57:16.660Z,98942.30
2017-12-28T10:58:19.132Z,98953.77
2017-12-28T10:59:21.578Z,98949.90
2017-12-28T11:00:24.021Z,98952.97
2017-12-28T11:01:26.490Z,98959.22
2017-12-28T11:02:28.985Z,98942.20
2017-12-28T11:03:31.434Z,98954.89
2017-12-28T11:04:33.896Z,98956.09
2017-12-28T11:05:36.345Z,98956.55
2017-12-28T11:06:38.790Z,98953.64
2017-12-28T11:07:41.267Z,98955.95
2017-12-28T11:08:43.727Z,98960.00
2017-12-28T11:09:46.189Z,98958.06
2017-12-28T11:10:48.660Z,98957.98
2017-12-28T11:11:51.106Z,98961.67
2017-12-28T11:12:53.587Z,98966.78
2017-12-28T11:13:56.048Z,98965.55
2017-12-28T11:14:58.512Z,98965.03
2017-12-28T11:16:00.972Z,98962.53
2017-12-28T11:17:03.418Z,98973.22
2017-12-28T11:18:05.908Z,98972.80
2017-12-28T11:19:08.368Z,98955.31
2017-12-28T11:20:10.827Z,98964.73
2017-12-28T11:21:13.278Z,98962.39
2017-12-28T11:22:15.751Z,98972.28
2017-12-28T11:23:18.312Z,98967.74
2017-12-28T11:24:20.768Z,98964.80
2017-12-28T11:25:23.231Z,98966.45
2017-12-28T11:26:25.688Z,98968.34
2017-12-28T11:27:28.152Z,98970.80
2017-12-28T11:28:30.625Z,98977.69
2017-12-28T11:29:33.070Z,98969.12
2017-12-28T11:30:35.524Z,98976.50
2017-12-28T11:31:37.987Z,98977.76
2017-12-28T11:32:40.433Z,98981.41
2017-12-28T11:33:42.899Z,98984.17
2017-12-28T11:34:45.350Z,98985.59
2017-12-28T11:35:47.816Z,98982.92
2017-12-28T11:36:50.310Z,98984.73
2017-12-28T11:37:52.753Z,98986.23
2017-12-28T11:38:55.236Z,98989.30
2017-12-28T11:39:57.685Z,98996.97
2017-12-28T11:41:00.130Z,98994.20
2017-12-28T11:42:02.592Z,98990.64
2017-12-28T11:43:05.039Z,98981.23
2017-12-28T11:44:08.707Z,98989.54
2017-12-28T11:45:11.168Z,98983.84
2017-12-28T11:46:13.622Z,98989.69
2017-12-28T11:47:16.124Z,98992.58
2017-12-28T11:48:18.587Z,98994.16
2017-12-28T11:49:21.054Z,98995.11
2017-12-28T11:50:23.511Z,98988.84
2017-12-28T11:51:25.954Z,98992.52
2017-12-28T11:52:33.259Z,98992.48
2017-12-28T11:53:35.719Z,98991.84
2017-12-28T11:54:41.989Z,98984.09
2017-12-28T11:55:44.472Z,98993.64
2017-12-28T11:56:46.939Z,98990.92
2017-12-28T11:57:55.096Z,98989.52
2017-12-28T11:58:57.555Z,98984.38
2017-12-28T12:00:05.550Z,98984.77
2017-12-28T12:01:09.844Z,98979.17
2017-12-28T12:02:12.307Z,98981.74
2017-12-28T12:03:20.490Z,98986.13
2017-12-28T12:04:22.945Z,98982.48
2017-12-28T12:05:25.466Z,98986.77
2017-12-28T12:06:29.919Z,98988.05
2017-12-28T12:07:38.120Z,98998.33
2017-12-28T12:08:46.193Z,99002.17
2017-12-28T12:09:49.400Z,99006.58
2017-12-28T12:10:51.864Z,99004.16
2017-12-28T12:11:54.336Z,99002.86
2017-12-28T12:12:56.823Z,99004.61
2017-12-28T12:13:59.274Z,99012.22